createdAt,value
2022-07-30T00:00:23.840Z,1.50
2022-07-30T00:02:52.467Z,1.40
2022-07-30T00:05:19.347Z,1.40
2022-07-30T00:07:46.242Z,1.60
2022-07-30T00:10:13.461Z,2.00
2022-07-30T00:12:40.619Z,1.60
2022-07-30T00:15:08.145Z,1.30
2022-07-30T00:17:35.131Z,1.43
2022-07-30T00:20:02.875Z,1.83
2022-07-30T00:22:31.409Z,1.40
2022-07-30T00:24:58.654Z,1.83
2022-07-30T00:27:25.579Z,2.20
2022-07-30T00:29:52.488Z,1.50
2022-07-30T00:32:19.710Z,1.57
2022-07-30T00:34:46.597Z,1.30
2022-07-30T00:37:13.462Z,1.77
2022-07-30T00:39:40.355Z,1.70
2022-07-30T00:42:07.298Z,1.30
2022-07-30T00:44:34.223Z,1.90
2022-07-30T00:47:01.535Z,1.50
2022-07-30T00:49:28.768Z,1.23
2022-07-30T00:51:55.970Z,2.20
2022-07-30T00:54:23.018Z,1.80
2022-07-30T00:56:50.536Z,1.43
2022-07-30T00:59:17.720Z,1.70
2022-07-30T01:01:44.685Z,1.30
2022-07-30T01:04:11.980Z,1.50
2022-07-30T01:06:40.324Z,1.50
2022-07-30T01:09:08.356Z,1.53
2022-07-30T01:11:41.173Z,1.57
2022-07-30T01:14:09.662Z,2.00
2022-07-30T01:16:39.898Z,2.00
2022-07-30T01:19:48.633Z,1.40
2022-07-30T01:22:30.606Z,1.60
2022-07-30T01:25:04.253Z,1.50
2022-07-30T01:27:35.186Z,1.60
2022-07-30T01:30:05.106Z,1.73
2022-07-30T01:32:34.907Z,1.40
2022-07-30T01:35:03.294Z,1.47
2022-07-30T01:37:31.764Z,2.13
2022-07-30T01:39:59.038Z,2.07
2022-07-30T01:42:28.454Z,2.10
2022-07-30T01:44:57.383Z,2.10
2022-07-30T01:47:25.490Z,1.90
2022-07-30T01:49:54.946Z,1.67
2022-07-30T01:52:23.582Z,2.30
2022-07-30T01:54:52.364Z,1.93
2022-07-30T01:57:21.255Z,1.60
2022-07-30T01:59:50.785Z,1.80
2022-07-30T02:02:18.237Z,2.20
2022-07-30T02:04:45.324Z,2.50
2022-07-30T02:07:27.786Z,2.63
2022-07-30T02:10:01.691Z,3.40
2022-07-30T02:12:30.723Z,3.53
2022-07-30T02:15:11.732Z,3.17
2022-07-30T02:17:45.489Z,3.40
2022-07-30T02:20:16.666Z,4.00
2022-07-30T02:22:47.410Z,3.20
2022-07-30T02:25:21.267Z,3.33
2022-07-30T02:27:56.048Z,3.80
2022-07-30T02:30:27.063Z,4.40
2022-07-30T02:32:59.381Z,3.30
2022-07-30T02:35:29.104Z,4.30
2022-07-30T02:37:57.908Z,3.87
2022-07-30T02:40:25.569Z,4.27
2022-07-30T02:42:54.022Z,4.53
2022-07-30T02:45:23.706Z,4.30
2022-07-30T02:48:01.212Z,4.27
2022-07-30T02:50:29.278Z,4.27
2022-07-30T02:52:59.454Z,4.20
2022-07-30T02:55:28.870Z,4.63
2022-07-30T02:57:57.563Z,3.90
2022-07-30T03:00:26.516Z,3.77
2022-07-30T03:02:56.977Z,4.70
2022-07-30T03:05:25.786Z,3.83
2022-07-30T03:07:56.443Z,4.80
2022-07-30T03:10:24.881Z,4.23
2022-07-30T03:12:52.730Z,4.50
2022-07-30T03:15:20.030Z,4.70
2022-07-30T03:17:53.711Z,4.37
2022-07-30T03:20:26.746Z,4.80
2022-07-30T03:22:55.099Z,5.17
2022-07-30T03:25:27.935Z,3.87
2022-07-30T03:27:56.643Z,4.50
2022-07-30T03:30:25.700Z,5.30
2022-07-30T03:32:53.636Z,4.37
2022-07-30T03:35:31.142Z,4.03
2022-07-30T03:37:59.526Z,4.00
2022-07-30T03:40:26.982Z,4.63
2022-07-30T03:42:54.040Z,4.80
2022-07-30T03:45:21.969Z,4.37
2022-07-30T03:47:49.426Z,4.30
2022-07-30T03:50:16.607Z,4.80
2022-07-30T03:52:43.964Z,4.60
2022-07-30T03:55:12.264Z,4.77
2022-07-30T03:57:39.574Z,3.97
2022-07-30T04:00:12.716Z,4.37
2022-07-30T04:02:47.224Z,3.83
2022-07-30T04:05:15.246Z,3.70
2022-07-30T04:07:45.364Z,3.77
2022-07-30T04:10:13.549Z,3.83
2022-07-30T04:12:40.548Z,4.17
2022-07-30T04:16:38.757Z,3.70
2022-07-30T04:18:01.507Z,3.43
2022-07-30T04:20:34.657Z,3.93
2022-07-30T04:23:02.786Z,4.40
2022-07-30T04:25:30.667Z,3.90
2022-07-30T04:27:58.286Z,3.87
2022-07-30T04:30:34.925Z,3.80
2022-07-30T04:33:03.715Z,4.77
2022-07-30T04:35:51.669Z,4.23
2022-07-30T04:38:19.876Z,4.77
2022-07-30T04:40:47.425Z,4.90
2022-07-30T04:43:14.507Z,4.70
2022-07-30T04:45:42.092Z,4.30
2022-07-30T04:48:09.301Z,4.03
2022-07-30T04:50:39.367Z,4.67
2022-07-30T04:53:06.367Z,5.77
2022-07-30T04:55:35.843Z,5.80
2022-07-30T04:58:04.015Z,5.53
2022-07-30T05:00:32.810Z,5.80
2022-07-30T05:03:02.481Z,5.73
2022-07-30T05:05:32.480Z,5.80
2022-07-30T05:08:01.379Z,5.60
2022-07-30T05:10:28.722Z,5.80
2022-07-30T05:12:55.591Z,5.60
2022-07-30T05:15:23.333Z,5.20
2022-07-30T05:18:03.298Z,5.20
2022-07-30T05:20:30.171Z,5.80
2022-07-30T05:22:58.156Z,5.57
2022-07-30T05:25:25.094Z,5.00
2022-07-30T05:27:52.627Z,5.07
2022-07-30T05:30:19.771Z,4.50
2022-07-30T05:32:53.041Z,5.37
2022-07-30T05:35:20.219Z,5.37
2022-07-30T05:37:47.163Z,5.00
2022-07-30T05:40:14.275Z,5.77
2022-07-30T05:42:41.243Z,5.13
2022-07-30T05:45:08.611Z,4.90
2022-07-30T05:47:35.494Z,5.60
2022-07-30T05:50:05.010Z,5.30
2022-07-30T05:52:32.800Z,5.17
2022-07-30T05:54:59.644Z,5.50
2022-07-30T05:57:26.643Z,5.10
2022-07-30T05:59:53.556Z,4.80
2022-07-30T06:02:20.502Z,4.33
2022-07-30T06:04:52.397Z,4.60
2022-07-30T06:07:19.388Z,3.60
2022-07-30T06:09:46.655Z,2.67
2022-07-30T06:12:13.609Z,2.83
2022-07-30T06:14:40.559Z,3.30
2022-07-30T06:17:08.567Z,2.60
2022-07-30T06:19:35.459Z,3.10
2022-07-30T06:22:06.821Z,3.37
2022-07-30T06:24:34.499Z,2.30
2022-07-30T06:27:01.808Z,2.60
2022-07-30T06:29:29.132Z,2.43
2022-07-30T06:31:56.444Z,2.27
2022-07-30T06:34:23.381Z,2.10
2022-07-30T06:36:50.502Z,2.10
2022-07-30T06:39:53.821Z,1.90
2022-07-30T06:42:04.786Z,1.60
2022-07-30T06:44:31.972Z,1.83
2022-07-30T06:47:01.829Z,1.20
2022-07-30T06:49:33.163Z,1.40
2022-07-30T06:52:00.227Z,1.00
2022-07-30T06:54:27.197Z,1.03
2022-07-30T06:56:54.240Z,0.90
2022-07-30T06:59:21.257Z,0.60
2022-07-30T07:01:48.205Z,1.07
2022-07-30T07:04:15.171Z,0.70
2022-07-30T07:06:42.114Z,0.70
2022-07-30T07:09:08.973Z,0.90
2022-07-30T07:11:35.858Z,0.87
2022-07-30T07:14:04.741Z,0.83
2022-07-30T07:16:32.068Z,0.80
2022-07-30T07:18:59.088Z,0.70
2022-07-30T07:21:25.973Z,0.93
2022-07-30T07:23:52.849Z,0.90
2022-07-30T07:26:19.779Z,1.00
2022-07-30T07:28:46.798Z,0.97
2022-07-30T07:32:05.758Z,1.20
2022-07-30T07:34:00.607Z,1.13
2022-07-30T07:36:27.631Z,0.80
2022-07-30T07:38:54.541Z,0.90
2022-07-30T07:41:21.443Z,0.90
2022-07-30T07:43:48.396Z,1.23
2022-07-30T07:46:17.255Z,0.80
2022-07-30T07:49:01.404Z,1.63
2022-07-30T07:51:47.401Z,1.47
2022-07-30T07:54:23.267Z,1.20
2022-07-30T07:56:56.674Z,0.87
2022-07-30T07:59:26.043Z,1.00
2022-07-30T08:02:03.462Z,1.10
2022-07-30T08:04:30.992Z,1.13
2022-07-30T08:06:58.013Z,0.80
2022-07-30T08:09:25.031Z,1.03
2022-07-30T08:11:51.960Z,1.00
2022-07-30T08:14:18.835Z,0.93
2022-07-30T08:16:45.723Z,0.70
2022-07-30T08:19:12.643Z,0.77
2022-07-30T08:21:39.619Z,0.80
2022-07-30T08:24:07.752Z,0.70
2022-07-30T08:26:34.711Z,0.80
2022-07-30T08:29:01.600Z,0.60
2022-07-30T08:31:28.442Z,0.70
2022-07-30T08:33:55.302Z,0.80
2022-07-30T08:36:25.791Z,0.90
2022-07-30T08:38:53.052Z,0.80
2022-07-30T08:41:21.253Z,1.10
2022-07-30T08:43:50.223Z,0.90
2022-07-30T08:46:19.287Z,0.90
2022-07-30T08:48:48.073Z,1.23
2022-07-30T08:51:18.014Z,1.00
2022-07-30T08:53:45.845Z,1.50
2022-07-30T08:56:13.176Z,1.20
2022-07-30T08:58:41.629Z,1.13
2022-07-30T09:01:09.050Z,0.90
2022-07-30T09:03:38.180Z,1.10
2022-07-30T09:06:11.968Z,1.37
2022-07-30T09:08:38.911Z,0.80
2022-07-30T09:11:05.850Z,1.37
2022-07-30T09:13:38.815Z,1.10
2022-07-30T09:16:06.714Z,0.83
2022-07-30T09:18:42.513Z,0.93
2022-07-30T09:21:27.087Z,1.00
2022-07-30T09:24:04.882Z,0.83
2022-07-30T09:26:35.616Z,0.90
2022-07-30T09:29:23.557Z,0.70
2022-07-30T09:32:02.629Z,0.60
2022-07-30T09:34:35.559Z,0.80
2022-07-30T09:37:05.591Z,0.63
2022-07-30T09:39:33.955Z,0.60
2022-07-30T09:42:03.456Z,0.60
2022-07-30T09:44:31.607Z,0.70
2022-07-30T09:46:58.906Z,0.80
2022-07-30T09:49:28.330Z,0.80
2022-07-30T09:51:57.539Z,0.80
2022-07-30T09:57:31.591Z,0.93
2022-07-30T10:00:15.694Z,1.37
2022-07-30T10:02:42.840Z,1.27
2022-07-30T10:05:14.884Z,1.00
2022-07-30T10:07:54.075Z,0.90
2022-07-30T10:10:25.179Z,0.70
2022-07-30T10:12:59.269Z,1.70
2022-07-30T10:15:32.899Z,2.90
2022-07-30T10:18:06.268Z,2.00
2022-07-30T10:20:35.066Z,2.20
2022-07-30T10:23:08.210Z,2.50
2022-07-30T10:25:37.019Z,2.50
2022-07-30T10:28:17.570Z,2.37
2022-07-30T10:30:45.421Z,2.40
2022-07-30T10:33:34.559Z,2.10
2022-07-30T10:36:02.549Z,2.43
2022-07-30T10:38:34.396Z,1.97
2022-07-30T10:41:15.848Z,1.40
2022-07-30T10:44:01.914Z,1.30
2022-07-30T10:46:55.355Z,1.73
2022-07-30T10:49:25.877Z,1.37
2022-07-30T10:51:57.450Z,1.30
2022-07-30T10:54:33.925Z,1.40
2022-07-30T10:57:15.013Z,1.10
2022-07-30T10:59:50.237Z,1.40
2022-07-30T11:02:19.777Z,2.07
2022-07-30T11:04:46.993Z,1.40
2022-07-30T11:07:23.612Z,1.10
2022-07-30T11:10:04.896Z,1.30
2022-07-30T11:12:46.068Z,1.30
2022-07-30T11:15:20.008Z,1.40
2022-07-30T11:18:05.162Z,1.10
2022-07-30T11:20:39.575Z,1.20
2022-07-30T11:23:20.034Z,1.23
2022-07-30T11:25:51.849Z,1.63
2022-07-30T11:28:49.464Z,1.30
2022-07-30T11:31:55.523Z,1.40
2022-07-30T11:34:25.627Z,1.10
2022-07-30T11:37:18.215Z,1.10
2022-07-30T11:39:55.230Z,1.13
2022-07-30T11:42:30.667Z,1.00
2022-07-30T11:45:16.046Z,1.20
2022-07-30T11:47:51.838Z,1.10
2022-07-30T11:50:19.050Z,1.07
2022-07-30T11:52:54.178Z,1.13
2022-07-30T11:55:33.279Z,1.40
2022-07-30T11:58:01.838Z,1.30
2022-07-30T12:00:47.849Z,1.87
2022-07-30T12:03:17.393Z,1.50
2022-07-30T12:05:44.893Z,1.13
2022-07-30T12:08:32.776Z,1.30
2022-07-30T12:11:01.743Z,1.70
2022-07-30T12:13:45.533Z,1.77
2022-07-30T12:16:17.659Z,1.50
2022-07-30T12:18:46.099Z,1.53
2022-07-30T12:21:16.528Z,1.60
2022-07-30T12:24:04.621Z,1.67
2022-07-30T12:26:34.231Z,1.93
2022-07-30T12:29:06.811Z,1.40
2022-07-30T12:31:34.313Z,1.50
2022-07-30T12:34:23.349Z,1.77
2022-07-30T12:36:50.507Z,1.93
2022-07-30T12:39:25.502Z,1.40
2022-07-30T12:41:56.120Z,1.50
2022-07-30T12:44:44.720Z,1.60
2022-07-30T12:47:20.959Z,1.80
2022-07-30T12:49:49.611Z,1.90
2022-07-30T12:52:34.623Z,1.93
2022-07-30T12:55:09.058Z,1.60
2022-07-30T12:57:56.310Z,1.50
2022-07-30T13:00:28.789Z,2.10
2022-07-30T13:02:56.378Z,1.40
2022-07-30T13:05:43.556Z,1.70
2022-07-30T13:08:10.573Z,1.80
2022-07-30T13:10:38.075Z,1.60
2022-07-30T13:13:05.258Z,1.50
2022-07-30T13:15:32.147Z,1.70
2022-07-30T13:17:59.032Z,1.40
2022-07-30T13:20:25.917Z,1.80
2022-07-30T13:22:52.923Z,1.70
2022-07-30T13:25:20.620Z,1.80
2022-07-30T13:27:48.410Z,1.57
2022-07-30T13:30:15.339Z,1.80
2022-07-30T13:32:42.327Z,1.47
2022-07-30T13:35:09.851Z,1.77
2022-07-30T13:37:38.092Z,1.70
2022-07-30T13:40:07.045Z,1.80
2022-07-30T13:42:34.000Z,1.77
2022-07-30T13:45:01.083Z,1.80
2022-07-30T13:47:28.011Z,1.67
2022-07-30T13:49:54.957Z,1.83
2022-07-30T13:52:21.854Z,1.23
2022-07-30T13:54:51.322Z,1.77
2022-07-30T13:57:18.382Z,1.60
2022-07-30T13:59:45.260Z,1.73
2022-07-30T14:02:12.247Z,1.67
2022-07-30T14:04:39.237Z,1.80
2022-07-30T14:07:06.159Z,1.70
2022-07-30T14:09:33.228Z,1.70
2022-07-30T14:12:11.558Z,1.60
2022-07-30T14:14:38.542Z,1.63
2022-07-30T14:17:05.481Z,1.93
2022-07-30T14:19:32.379Z,2.07
2022-07-30T14:21:59.512Z,1.40
2022-07-30T14:24:26.399Z,2.07
2022-07-30T14:26:57.723Z,1.53
2022-07-30T14:29:26.231Z,1.63
2022-07-30T14:31:53.511Z,2.87
2022-07-30T14:34:20.714Z,2.53
2022-07-30T14:36:47.607Z,1.73
2022-07-30T14:39:15.727Z,1.67
2022-07-30T14:41:43.266Z,1.80
2022-07-30T14:44:12.378Z,1.57
2022-07-30T14:46:52.185Z,1.77
2022-07-30T14:49:25.840Z,1.43
2022-07-30T14:51:53.310Z,1.70
2022-07-30T14:54:22.505Z,1.50
2022-07-30T14:56:53.605Z,1.67
2022-07-30T14:59:23.360Z,1.50
2022-07-30T15:01:50.451Z,1.80
2022-07-30T15:04:17.826Z,1.50
2022-07-30T15:06:44.869Z,1.17
2022-07-30T15:09:12.206Z,1.40
2022-07-30T15:12:08.929Z,1.47
2022-07-30T15:14:27.156Z,1.07
2022-07-30T15:16:57.522Z,1.77
2022-07-30T15:19:29.026Z,1.20
2022-07-30T15:21:55.927Z,1.30
2022-07-30T15:24:22.883Z,1.40
2022-07-30T15:26:53.734Z,1.37
2022-07-30T15:29:20.811Z,1.50
2022-07-30T15:31:47.727Z,1.33
2022-07-30T15:34:14.589Z,1.57
2022-07-30T15:36:41.812Z,1.40
2022-07-30T15:39:08.691Z,1.67
2022-07-30T15:41:37.098Z,1.00
2022-07-30T15:44:04.260Z,1.70
2022-07-30T15:46:31.153Z,1.30
2022-07-30T15:48:58.113Z,1.13
2022-07-30T15:51:25.056Z,1.10
2022-07-30T15:53:51.920Z,1.00
2022-07-30T15:56:19.060Z,1.00
2022-07-30T15:58:46.050Z,1.17
2022-07-30T16:01:13.054Z,1.00
2022-07-30T16:03:40.054Z,1.27
2022-07-30T16:06:06.913Z,0.90
2022-07-30T16:08:33.777Z,1.27
2022-07-30T16:11:03.847Z,1.00
2022-07-30T16:13:31.819Z,0.80
2022-07-30T16:15:58.838Z,1.10
2022-07-30T16:18:25.803Z,0.80
2022-07-30T16:20:52.739Z,0.80
2022-07-30T16:23:21.677Z,0.90
2022-07-30T16:25:48.930Z,1.10
2022-07-30T16:28:15.815Z,0.80
2022-07-30T16:30:50.697Z,0.70
2022-07-30T16:33:18.778Z,0.90
2022-07-30T16:35:48.918Z,0.80
2022-07-30T16:38:18.126Z,0.90
2022-07-30T16:40:45.472Z,0.80
2022-07-30T16:43:12.389Z,1.13
2022-07-30T16:45:39.566Z,0.90
2022-07-30T16:48:06.639Z,0.60
2022-07-30T16:50:33.679Z,0.80
2022-07-30T16:53:00.641Z,0.73
2022-07-30T16:55:27.658Z,0.60
2022-07-30T16:57:54.534Z,0.80
2022-07-30T17:00:21.511Z,0.70
2022-07-30T17:02:48.370Z,0.70
2022-07-30T17:05:15.264Z,0.63
2022-07-30T17:07:42.187Z,0.80
2022-07-30T17:10:10.917Z,0.80
2022-07-30T17:12:39.209Z,0.80
2022-07-30T17:15:07.856Z,0.70
2022-07-30T17:17:34.722Z,0.97
2022-07-30T17:20:03.863Z,0.80
2022-07-30T17:22:30.943Z,0.80
2022-07-30T17:24:57.856Z,0.77
2022-07-30T17:27:26.612Z,0.80
2022-07-30T17:29:53.487Z,0.80
2022-07-30T17:32:21.561Z,1.03
2022-07-30T17:34:49.271Z,0.70
2022-07-30T17:37:16.783Z,0.90
2022-07-30T17:40:24.676Z,0.90
2022-07-30T17:42:30.798Z,0.93
2022-07-30T17:44:59.459Z,0.80
2022-07-30T17:47:26.303Z,0.80
2022-07-30T17:49:53.551Z,0.90
2022-07-30T17:52:23.396Z,0.87
2022-07-30T17:54:53.163Z,0.70
2022-07-30T17:57:20.932Z,0.80
2022-07-30T17:59:47.845Z,0.90
2022-07-30T18:02:14.931Z,0.83
2022-07-30T18:04:41.805Z,1.10
2022-07-30T18:07:08.685Z,0.83
2022-07-30T18:09:39.519Z,1.07
2022-07-30T18:12:07.268Z,1.20
2022-07-30T18:14:34.222Z,1.00
2022-07-30T18:17:02.852Z,1.03
2022-07-30T18:19:29.817Z,1.00
2022-07-30T18:21:57.155Z,1.20
2022-07-30T18:24:24.982Z,1.10
2022-07-30T18:26:52.767Z,1.10
2022-07-30T18:29:21.030Z,1.07
2022-07-30T18:31:48.242Z,1.40
2022-07-30T18:34:15.354Z,1.07
2022-07-30T18:36:42.243Z,1.10
2022-07-30T18:39:09.145Z,0.97
2022-07-30T18:41:36.086Z,1.00
2022-07-30T18:44:03.075Z,2.40
2022-07-30T18:46:29.977Z,1.37
2022-07-30T18:48:57.042Z,1.10
2022-07-30T18:51:25.292Z,1.47
2022-07-30T18:53:53.558Z,1.30
2022-07-30T18:56:20.758Z,1.10
2022-07-30T18:58:47.714Z,1.43
2022-07-30T19:01:14.837Z,1.30
2022-07-30T19:03:41.811Z,1.10
2022-07-30T19:06:08.721Z,1.33
2022-07-30T19:08:35.726Z,1.43
2022-07-30T19:11:02.886Z,1.20
2022-07-30T19:13:29.821Z,1.43
2022-07-30T19:15:56.740Z,1.20
2022-07-30T19:18:23.667Z,1.30
2022-07-30T19:20:51.736Z,1.30
2022-07-30T19:23:19.052Z,1.50
2022-07-30T19:25:46.057Z,1.20
2022-07-30T19:28:15.383Z,1.37
2022-07-30T19:30:42.376Z,1.10
2022-07-30T19:33:15.185Z,1.50
2022-07-30T19:35:43.090Z,1.43
2022-07-30T19:38:14.305Z,1.30
2022-07-30T19:40:57.091Z,1.10
2022-07-30T19:43:24.676Z,1.30
2022-07-30T19:45:52.189Z,1.40
2022-07-30T19:48:29.535Z,1.10
2022-07-30T19:50:59.541Z,1.10
2022-07-30T19:53:31.278Z,1.30
2022-07-30T19:56:08.143Z,1.43
2022-07-30T19:58:36.749Z,1.37
2022-07-30T20:01:08.491Z,1.50
2022-07-30T20:03:37.230Z,1.53
2022-07-30T20:06:07.615Z,1.23
2022-07-30T20:08:38.257Z,1.30
2022-07-30T20:11:08.327Z,1.47
2022-07-30T20:13:45.409Z,1.20
2022-07-30T20:16:17.558Z,1.33
2022-07-30T20:18:46.188Z,1.23
2022-07-30T20:21:15.612Z,1.30
2022-07-30T20:23:43.575Z,1.10
2022-07-30T20:26:14.176Z,1.53
2022-07-30T20:28:43.380Z,1.60
2022-07-30T20:31:12.902Z,1.50
2022-07-30T20:33:40.159Z,1.67
2022-07-30T20:36:10.037Z,1.63
2022-07-30T20:38:38.927Z,1.47
2022-07-30T20:41:10.097Z,1.10
2022-07-30T20:43:46.152Z,1.10
2022-07-30T20:46:23.209Z,2.00
2022-07-30T20:48:51.650Z,1.40
2022-07-30T20:51:18.927Z,1.67
2022-07-30T20:53:49.280Z,1.97
2022-07-30T20:56:19.419Z,1.53
2022-07-30T20:58:47.502Z,2.00
2022-07-30T21:01:17.645Z,1.70
2022-07-30T21:03:47.632Z,2.20
2022-07-30T21:06:16.020Z,1.60
2022-07-30T21:08:42.882Z,1.50
2022-07-30T21:11:10.018Z,1.90
2022-07-30T21:13:39.312Z,2.30
2022-07-30T21:16:15.593Z,1.70
2022-07-30T21:18:50.231Z,1.50
2022-07-30T21:21:28.967Z,1.60
2022-07-30T21:24:05.759Z,1.90
2022-07-30T21:26:32.704Z,1.50
2022-07-30T21:29:01.081Z,1.57
2022-07-30T21:32:00.471Z,1.67
2022-07-30T21:34:15.643Z,1.93
2022-07-30T21:36:43.387Z,1.50
2022-07-30T21:39:13.978Z,1.67
2022-07-30T21:41:41.192Z,1.70
2022-07-30T21:44:09.789Z,1.50
2022-07-30T21:46:37.982Z,1.70
2022-07-30T21:49:07.232Z,1.30
2022-07-30T21:51:35.010Z,1.40
2022-07-30T21:54:07.303Z,1.50
2022-07-30T21:56:34.471Z,1.30
2022-07-30T21:59:08.470Z,1.60
2022-07-30T22:01:38.652Z,1.60
2022-07-30T22:04:09.131Z,1.90
2022-07-30T22:06:39.098Z,1.70
2022-07-30T22:09:26.405Z,2.00
2022-07-30T22:12:01.681Z,1.30
2022-07-30T22:14:29.367Z,1.40
2022-07-30T22:16:56.735Z,1.77
2022-07-30T22:19:25.802Z,1.90
2022-07-30T22:21:53.123Z,1.33
2022-07-30T22:24:29.555Z,1.53
2022-07-30T22:27:11.010Z,1.60
2022-07-30T22:29:42.731Z,1.40
2022-07-30T22:32:10.141Z,1.60
2022-07-30T22:34:37.956Z,1.67
2022-07-30T22:37:09.179Z,1.53
2022-07-30T22:39:50.900Z,1.60
2022-07-30T22:42:24.297Z,1.97
2022-07-30T22:44:53.037Z,1.63
2022-07-30T22:47:51.551Z,1.50
2022-07-30T22:50:09.147Z,1.53
2022-07-30T22:52:44.194Z,1.70
2022-07-30T22:55:22.138Z,1.77
2022-07-30T22:57:49.923Z,1.60
2022-07-30T23:00:27.774Z,1.50
2022-07-30T23:02:56.181Z,2.10
2022-07-30T23:05:23.373Z,1.73
2022-07-30T23:07:50.636Z,1.80
2022-07-30T23:10:20.324Z,1.80
2022-07-30T23:12:52.912Z,1.90
2022-07-30T23:15:20.537Z,1.80
2022-07-30T23:17:47.830Z,1.63
2022-07-30T23:20:17.389Z,1.90
2022-07-30T23:22:44.262Z,1.83
2022-07-30T23:25:12.882Z,1.93
2022-07-30T23:27:40.474Z,1.90
2022-07-30T23:30:09.593Z,1.73
2022-07-30T23:32:36.860Z,1.50
2022-07-30T23:35:04.477Z,1.83
2022-07-30T23:37:47.567Z,1.90
2022-07-30T23:40:16.110Z,1.63
2022-07-30T23:42:43.134Z,1.80
2022-07-30T23:45:10.484Z,1.60
2022-07-30T23:47:58.018Z,1.80
2022-07-30T23:50:25.612Z,1.90
2022-07-30T23:52:52.621Z,2.10
2022-07-30T23:55:19.603Z,1.67
2022-07-30T23:57:46.476Z,2.07
